Hlavní strana
METAR-TAF:

METAR-TAF

Letiště :

Letiště Lisabon-Portela

Lisabon, Portugalsko

zeměpisná šířka: 38-46N, zeměpisná délka: 009-08W, výška: 114 m

Aktuální stav počasí

Zpráva byla vytvořena před 14 minutami, v 02:30 UTC
Severoseverozápadní vítr 3 kt
Teplota 11°C
Vlhkost vzduchu 54%
Tlak 1024 hPa
Viditelnost 10 km a více
Žádná oblačnost pod 1500 m, nevyskytují se cumulonimby.

METAR: LPPT 220230Z 33003KT CAVOK 11/02 Q1024

Čas: 02:44 (02:44 UTC)

Předpověď počasí

Zpráva byla vytvořena před 3 hodinami a 44 minutami, v 23:00 UTC
Předpověď platná od 22 v 00 UTC do 23 v 06 UTC
Severoseverozápadní vítr 8 kt
Viditelnost 10 km a více
Žádná oblačnost pod 1500 m, nevyskytují se cumulonimby.
Změna
od 22 v 02 UTC do 22 v 05 UTC
Severovýchodní vítr 8 kt
Dočasný
od 22 v 18 UTC do 22 v 24 UTC
Severoseverozápadní vítr 8 kt

TAF: LPPT 212300Z 2200/2306 34008KT CAVOK BECMG 2202/2205 05008KT TEMPO 2218/2224 34008KT

Stav a předpovědi počasí z více než 4 000 letišť (zprávy METAR a TAF).

Červené a žluté tečky na mapě představují dostupné meteorologické stanice.

Když kurzor umístíte na tečku, zobrazí se název stanice.

Pak kliknutím zobrazíte stav a předpověď počasí.

Chcete-li změnit mapu, kliknutím na zelené tlačítko se znaménkem +mapu přiblížíte, kliknutím na zelené tlačítko se znaménkem – mapu oddálíte a kliknutím na zelené šipky přejdete na sousední mapy.


METAR-TAF: